Погода Забашевкана 2 недели

Минская область, Белоруссия

26 мая-08 июня
  • 26мая
    Сегодня
    +13°
    +26°
    Практически безоблачно
    ВремяПогодаТемператураВлажностьДавлениеВетер, м/сВероятность осадков
    00:00Ясно и безоблачно+17°C62 %753 мм1.2 м/с2 %
    03:00Ясно и безоблачно+14°C72 %753 мм0.7 м/с2 %
    06:00Ясно и безоблачно+13°C76 %753 мм0.3 м/с2 %
    09:00Ясно и безоблачно+19°C56 %754 мм0.9 м/с2 %
    12:00Практически безоблачно+24°C39 %754 мм2.2 м/с2 %
    15:00Практически безоблачно+26°C37 %754 мм1.9 м/с2 %
    18:00Ясно и безоблачно+26°C36 %753 мм2.1 м/с2 %
    21:00Ясно и безоблачно+22°C54 %753 мм0.8 м/с2 %
  • 27мая
    Понедельник
    +13°
    +27°
    Практически безоблачно
    ВремяПогодаТемператураВлажностьДавлениеВетер, м/сВероятность осадков
    00:00Ясно и безоблачно+18°C69 %753 мм0.5 м/с2 %
    03:00Ясно и безоблачно+15°C83 %753 мм0.3 м/с2 %
    06:00Ясно и безоблачно+14°C81 %753 мм0.4 м/с2 %
    09:00Ясно и безоблачно+21°C60 %753 мм0.7 м/с2 %
    12:00Практически безоблачно+26°C43 %753 мм1.8 м/с2 %
    15:00Практически безоблачно+26°C42 %752 мм1.6 м/с4 %
    18:00Ясно и безоблачно+26°C49 %751 мм1.8 м/с21 %
    21:00Ясно и безоблачно+22°C71 %751 мм0.9 м/с6 %
  • 28мая
    Вторник
    +14°
    +26°
    Облачно с прояснениями
    ВремяПогодаТемператураВлажностьДавлениеВетер, м/сВероятность осадков
    00:00Ясно и безоблачно+18°C83 %751 мм0.7 м/с2 %
    03:00Ясно и безоблачно+15°C91 %751 мм0.4 м/с2 %
    06:00Ясно и безоблачно+15°C91 %750 мм0.4 м/с2 %
    09:00Ясно и безоблачно+20°C68 %751 мм0.7 м/с2 %
    12:00Ясно и безоблачно+24°C42 %750 мм2.0 м/с6 %
    15:00Облачно с прояснениями+25°C44 %749 мм1.8 м/с18 %
    18:00Практически безоблачно+24°C59 %749 мм1.7 м/с37 %
    21:00Ясно и безоблачно+21°C74 %748 мм1.0 м/с15 %
  • 29мая
    Среда
    +14°
    +27°
    Практически безоблачно
    ВремяПогодаТемператураВлажностьДавлениеВетер, м/сВероятность осадков
    00:00Ясно и безоблачно+18°C91 %748 мм0.8 м/с2 %
    03:00Ясно и безоблачно+16°C94 %747 мм0.6 м/с2 %
    06:00Ясно и безоблачно+15°C93 %747 мм0.5 м/с2 %
    09:00Практически безоблачно+20°C74 %747 мм1.0 м/с2 %
    12:00Ясно и безоблачно+25°C44 %747 мм2.1 м/с13 %
    15:00Практически безоблачно+27°C31 %746 мм2.2 м/с28 %
    18:00Небольшая облачность+26°C33 %744 мм2.2 м/с34 %
    21:00Практически безоблачно+22°C61 %744 мм1.3 м/с8 %
  • 30мая
    Четверг
    +14°
    +26°
    Небольшая облачность, возможен дождь с грозой
    ВремяПогодаТемператураВлажностьДавлениеВетер, м/сВероятность осадков
    00:00Небольшая облачность+18°C64 %744 мм1.2 м/с2 %
    03:00Ясно и безоблачно+16°C71 %743 мм0.6 м/с2 %
    06:00Облачно с прояснениями+15°C72 %743 мм0.7 м/с2 %
    09:00Облачно с прояснениями+19°C61 %743 мм0.7 м/с8 %
    12:00Облачно с прояснениями+23°C45 %743 мм2.3 м/с24 %
    15:00Небольшая облачность, возможен дождь с грозой+24°C46 %743 мм1.8 м/с39 %
    18:00Пасмурно, дожди с грозами+25°C81 %743 мм2.7 м/с41 %
    21:00Практически безоблачно+22°C88 %742 мм1.3 м/с12 %
Мы используем cookies
Соглашаюсь